createdAt,value
2018-07-20T00:02:17.516Z,20.40
2018-07-20T00:04:45.952Z,20.40
2018-07-20T00:07:14.462Z,20.40
2018-07-20T00:09:42.911Z,20.40
2018-07-20T00:12:11.322Z,20.40
2018-07-20T00:14:40.099Z,20.30
2018-07-20T00:17:08.533Z,20.30
2018-07-20T00:19:36.941Z,20.20
2018-07-20T00:22:05.497Z,20.10
2018-07-20T00:24:33.979Z,20.10
2018-07-20T00:27:02.413Z,20.10
2018-07-20T00:29:31.068Z,20.10
2018-07-20T00:31:59.505Z,20.10
2018-07-20T00:34:27.917Z,20.00
2018-07-20T00:36:57.458Z,19.90
2018-07-20T00:39:26.024Z,19.90
2018-07-20T00:41:54.449Z,19.90
2018-07-20T00:44:22.923Z,19.80
2018-07-20T00:46:51.456Z,19.80
2018-07-20T00:49:20.058Z,19.80
2018-07-20T00:51:48.528Z,19.70
2018-07-20T00:54:17.044Z,19.60
2018-07-20T00:56:45.506Z,19.60
2018-07-20T00:59:13.940Z,19.60
2018-07-20T01:01:42.381Z,19.60
2018-07-20T01:04:10.933Z,19.60
2018-07-20T01:06:39.398Z,19.50
2018-07-20T01:09:09.288Z,19.50
2018-07-20T01:11:37.726Z,19.40
2018-07-20T01:14:06.270Z,19.40
2018-07-20T01:16:34.693Z,19.30
2018-07-20T01:19:03.112Z,19.20
2018-07-20T01:21:31.792Z,19.20
2018-07-20T01:24:00.204Z,19.10
2018-07-20T01:26:28.641Z,19.10
2018-07-20T01:28:57.342Z,19.10
2018-07-20T01:31:26.147Z,19.00
2018-07-20T01:33:54.533Z,19.00
2018-07-20T01:36:22.932Z,18.90
2018-07-20T01:38:51.364Z,18.90
2018-07-20T01:41:19.778Z,18.80
2018-07-20T01:43:48.413Z,18.80
2018-07-20T01:46:16.908Z,18.80
2018-07-20T01:48:45.305Z,18.70
2018-07-20T01:51:13.842Z,18.70
2018-07-20T01:53:42.265Z,18.60
2018-07-20T02:01:07.286Z,18.50
2018-07-20T02:03:35.715Z,18.40
2018-07-20T02:06:04.253Z,18.40
2018-07-20T02:08:32.756Z,18.30
2018-07-20T02:11:01.712Z,18.20
2018-07-20T02:13:30.418Z,18.10
2018-07-20T02:18:27.664Z,17.90
2018-07-20T02:20:56.067Z,17.80
2018-07-20T02:23:24.745Z,17.80
2018-07-20T02:25:53.813Z,17.60
2018-07-20T02:28:22.631Z,17.60
2018-07-20T02:30:51.175Z,17.50
2018-07-20T02:33:19.715Z,17.50
2018-07-20T02:35:48.368Z,17.40
2018-07-20T02:38:17.114Z,17.40
2018-07-20T02:40:45.601Z,17.30
2018-07-20T02:43:14.171Z,17.30
2018-07-20T02:45:42.708Z,17.30
2018-07-20T02:48:11.194Z,17.20
2018-07-20T02:50:39.681Z,17.20
2018-07-20T02:53:08.141Z,17.20
2018-07-20T02:55:36.556Z,17.20
2018-07-20T02:58:05.277Z,17.10
2018-07-20T03:00:33.813Z,17.10
2018-07-20T03:03:02.245Z,17.10
2018-07-20T03:05:30.695Z,17.10
2018-07-20T03:07:59.201Z,17.10
2018-07-20T03:10:27.797Z,17.00
2018-07-20T03:12:56.320Z,17.00
2018-07-20T03:15:24.877Z,17.00
2018-07-20T03:17:53.378Z,17.00
2018-07-20T03:20:21.821Z,17.00
2018-07-20T03:22:51.425Z,16.90
2018-07-20T03:25:19.960Z,16.90
2018-07-20T03:27:48.371Z,16.90
2018-07-20T03:30:16.957Z,16.80
2018-07-20T03:32:45.610Z,16.80
2018-07-20T03:37:42.090Z,16.90
2018-07-20T03:40:10.864Z,16.90
2018-07-20T03:42:39.347Z,16.90
2018-07-20T03:45:07.803Z,16.90
2018-07-20T03:47:36.395Z,16.90
2018-07-20T03:50:05.454Z,17.00
2018-07-20T03:52:33.909Z,17.00
2018-07-20T03:55:02.429Z,17.00
2018-07-20T03:57:30.872Z,17.00
2018-07-20T03:59:59.280Z,17.10
2018-07-20T04:02:28.059Z,17.10
2018-07-20T04:04:56.498Z,17.10
2018-07-20T04:07:25.036Z,17.20
2018-07-20T04:09:53.517Z,17.20
2018-07-20T04:12:21.962Z,17.30
2018-07-20T04:14:50.464Z,17.30
2018-07-20T04:17:18.896Z,17.50
2018-07-20T04:19:47.328Z,17.60
2018-07-20T04:22:15.730Z,17.90
2018-07-20T04:24:44.677Z,18.20
2018-07-20T04:27:13.079Z,18.60
2018-07-20T04:29:41.663Z,18.90
2018-07-20T04:32:10.455Z,19.10
2018-07-20T04:34:38.919Z,19.40
2018-07-20T04:37:07.473Z,19.70
2018-07-20T04:39:36.940Z,20.00
2018-07-20T04:42:05.371Z,20.40
2018-07-20T04:44:33.767Z,20.70
2018-07-20T04:47:02.209Z,20.90
2018-07-20T04:49:30.645Z,20.90
2018-07-20T04:51:59.052Z,20.80
2018-07-20T04:54:27.544Z,20.50
2018-07-20T04:56:56.287Z,20.30
2018-07-20T04:59:25.522Z,20.00
2018-07-20T05:01:54.436Z,19.90
2018-07-20T05:04:22.844Z,19.70
2018-07-20T05:06:51.282Z,19.70
2018-07-20T05:09:19.728Z,19.80
2018-07-20T05:11:48.164Z,20.00
2018-07-20T05:14:16.604Z,20.30
2018-07-20T05:16:45.458Z,20.70
2018-07-20T05:19:13.893Z,21.20
2018-07-20T05:21:42.489Z,21.80
2018-07-20T05:24:10.994Z,22.30
2018-07-20T05:26:39.652Z,22.80
2018-07-20T05:29:08.101Z,23.30
2018-07-20T05:31:36.569Z,23.90
2018-07-20T05:34:05.080Z,24.50
2018-07-20T05:36:33.674Z,24.80
2018-07-20T05:39:02.708Z,25.10
2018-07-20T05:41:31.132Z,25.50
2018-07-20T05:43:59.608Z,26.00
2018-07-20T05:46:28.003Z,26.40
2018-07-20T05:48:56.853Z,26.80
2018-07-20T05:51:25.312Z,27.40
2018-07-20T05:53:53.733Z,27.60
2018-07-20T05:56:22.236Z,27.80
2018-07-20T05:58:50.744Z,28.00
2018-07-20T06:03:47.671Z,28.50
2018-07-20T06:06:16.200Z,28.50
2018-07-20T06:08:44.713Z,28.40
2018-07-20T06:11:13.260Z,28.30
2018-07-20T06:16:09.929Z,28.60
2018-07-20T06:18:38.476Z,28.90
2018-07-20T06:21:07.655Z,29.20
2018-07-20T06:23:36.191Z,29.60
2018-07-20T06:26:04.742Z,30.00
2018-07-20T06:28:33.170Z,30.40
2018-07-20T06:31:01.789Z,30.80
2018-07-20T06:33:30.264Z,31.20
2018-07-20T06:35:58.688Z,31.30
2018-07-20T06:38:27.101Z,31.20
2018-07-20T06:40:55.555Z,31.10
2018-07-20T06:43:23.957Z,31.00
2018-07-20T06:45:52.433Z,31.10
2018-07-20T06:48:21.049Z,31.50
2018-07-20T06:50:49.508Z,31.70
2018-07-20T06:53:17.956Z,31.60
2018-07-20T06:55:46.451Z,31.60
2018-07-20T06:58:15.079Z,31.80
2018-07-20T07:00:43.500Z,32.10
2018-07-20T07:03:12.734Z,32.40
2018-07-20T07:05:41.234Z,32.80
2018-07-20T07:08:09.710Z,33.00
2018-07-20T07:10:38.136Z,33.30
2018-07-20T07:13:06.589Z,33.70
2018-07-20T07:15:35.082Z,34.20
2018-07-20T07:18:03.620Z,33.70
2018-07-20T07:20:32.188Z,33.50
2018-07-20T07:23:00.623Z,33.80
2018-07-20T07:25:29.236Z,33.70
2018-07-20T07:27:57.840Z,33.80
2018-07-20T07:30:26.597Z,34.00
2018-07-20T07:32:55.065Z,34.10
2018-07-20T07:35:23.539Z,34.10
2018-07-20T07:37:51.996Z,33.70
2018-07-20T07:40:20.497Z,33.90
2018-07-20T07:42:48.976Z,34.10
2018-07-20T07:45:17.416Z,34.30
2018-07-20T07:47:46.027Z,34.50
2018-07-20T07:50:14.515Z,34.50
2018-07-20T07:52:42.980Z,34.80
2018-07-20T07:55:11.529Z,34.80
2018-07-20T07:57:39.944Z,35.40
2018-07-20T08:00:08.491Z,35.50
2018-07-20T08:02:36.925Z,35.50
2018-07-20T08:05:05.545Z,35.60
2018-07-20T08:07:34.019Z,35.70
2018-07-20T08:10:02.929Z,36.00
2018-07-20T08:12:31.301Z,36.30
2018-07-20T08:14:59.810Z,36.30
2018-07-20T08:17:35.292Z,36.60
2018-07-20T08:20:05.137Z,35.90
2018-07-20T08:22:33.724Z,36.30
2018-07-20T08:25:02.271Z,36.60
2018-07-20T08:27:30.874Z,36.70
2018-07-20T08:29:59.339Z,36.80
2018-07-20T08:32:27.866Z,37.40
2018-07-20T08:34:56.409Z,37.70
2018-07-20T08:37:25.241Z,38.00
2018-07-20T08:39:54.106Z,38.40
2018-07-20T08:42:23.147Z,38.70
2018-07-20T08:44:52.170Z,39.10
2018-07-20T08:47:20.892Z,39.20
2018-07-20T08:49:49.396Z,39.00
2018-07-20T08:52:17.840Z,39.10
2018-07-20T08:54:46.325Z,39.40
2018-07-20T08:57:14.870Z,39.40
2018-07-20T08:59:43.374Z,40.00
2018-07-20T09:02:11.902Z,40.30
2018-07-20T09:04:40.366Z,41.00
2018-07-20T09:07:08.853Z,41.40
2018-07-20T09:09:37.292Z,41.10
2018-07-20T09:14:34.009Z,41.30
2018-07-20T09:17:02.493Z,41.30
2018-07-20T09:19:31.010Z,41.40
2018-07-20T09:21:59.530Z,41.50
2018-07-20T09:24:28.001Z,41.70
2018-07-20T09:26:56.469Z,41.70
2018-07-20T09:29:28.585Z,41.80
2018-07-20T09:31:57.049Z,42.30
2018-07-20T09:34:25.529Z,42.40
2018-07-20T09:36:54.094Z,42.20
2018-07-20T09:39:22.590Z,42.20
2018-07-20T09:41:51.088Z,41.90
2018-07-20T09:44:19.590Z,41.60
2018-07-20T09:46:48.252Z,41.10
2018-07-20T09:49:16.756Z,41.10
2018-07-20T09:51:45.316Z,41.80
2018-07-20T09:54:13.960Z,42.40
2018-07-20T09:56:42.809Z,42.40
2018-07-20T09:59:11.225Z,42.40
2018-07-20T10:01:39.693Z,42.50
2018-07-20T10:04:08.197Z,42.80
2018-07-20T10:06:36.813Z,43.10
2018-07-20T10:09:08.960Z,43.20
2018-07-20T10:11:37.419Z,43.20
2018-07-20T10:14:06.145Z,43.90
2018-07-20T10:16:34.623Z,44.00
2018-07-20T10:19:03.317Z,44.60
2018-07-20T10:21:31.808Z,45.40
2018-07-20T10:24:00.265Z,45.70
2018-07-20T10:26:28.979Z,46.00
2018-07-20T10:28:57.897Z,45.60
2018-07-20T10:31:26.376Z,45.00
2018-07-20T10:33:54.819Z,44.40
2018-07-20T10:38:51.381Z,44.60
2018-07-20T10:41:19.771Z,43.70
2018-07-20T10:43:48.258Z,43.40
2018-07-20T10:46:17.041Z,43.60
2018-07-20T10:48:45.724Z,43.70
2018-07-20T10:51:14.353Z,43.10
2018-07-20T10:53:42.989Z,43.20
2018-07-20T10:56:11.921Z,42.10
2018-07-20T10:58:40.462Z,41.90
2018-07-20T11:01:08.908Z,42.00
2018-07-20T11:03:37.383Z,41.80
2018-07-20T11:06:06.110Z,41.90
2018-07-20T11:08:34.829Z,41.90
2018-07-20T11:11:03.692Z,41.40
2018-07-20T11:26:31.682Z,40.40
2018-07-20T11:29:00.961Z,39.70
2018-07-20T11:31:29.824Z,35.80
2018-07-20T11:33:58.785Z,35.50
2018-07-20T11:36:27.937Z,35.10
2018-07-20T11:38:56.937Z,35.10
2018-07-20T11:41:34.075Z,34.90
2018-07-20T11:44:02.760Z,34.50
2018-07-20T11:46:31.224Z,34.10
2018-07-20T11:48:59.977Z,33.90
2018-07-20T11:51:28.404Z,33.70
2018-07-20T11:53:56.860Z,33.50
2018-07-20T11:56:25.397Z,33.50
2018-07-20T11:58:54.115Z,33.30
2018-07-20T12:01:23.098Z,33.30
2018-07-20T12:03:51.960Z,33.10
2018-07-20T12:06:20.548Z,33.10
2018-07-20T12:08:49.348Z,33.10
2018-07-20T12:11:17.972Z,33.10
2018-07-20T12:13:46.564Z,33.00
2018-07-20T12:16:15.189Z,32.80
2018-07-20T12:18:44.246Z,32.50
2018-07-20T12:21:13.223Z,32.20
2018-07-20T12:23:41.957Z,32.10
2018-07-20T12:26:11.002Z,32.10
2018-07-20T12:28:39.565Z,32.40
2018-07-20T12:31:08.552Z,32.50
2018-07-20T12:33:37.479Z,32.60
2018-07-20T12:36:06.435Z,32.60
2018-07-20T12:38:35.642Z,32.60
2018-07-20T12:41:04.742Z,32.70
2018-07-20T12:43:34.079Z,32.80
2018-07-20T12:46:03.685Z,32.80
2018-07-20T12:48:32.502Z,32.80
2018-07-20T12:51:02.233Z,32.90
2018-07-20T12:53:31.437Z,32.80
2018-07-20T12:56:01.024Z,32.80
2018-07-20T12:58:30.451Z,33.00
2018-07-20T13:00:59.733Z,33.10
2018-07-20T13:03:28.661Z,33.10
2018-07-20T13:05:58.096Z,33.10
2018-07-20T13:08:27.500Z,33.30
2018-07-20T13:13:24.781Z,33.20
2018-07-20T13:15:54.092Z,33.40
2018-07-20T13:18:23.108Z,33.60
2018-07-20T13:20:51.866Z,33.60
2018-07-20T13:23:20.643Z,33.70
2018-07-20T13:28:18.589Z,33.90
2018-07-20T13:30:47.301Z,33.90
2018-07-20T13:33:16.615Z,34.00
2018-07-20T13:35:46.363Z,33.90
2018-07-20T13:38:15.467Z,33.90
2018-07-20T13:40:44.162Z,33.90
2018-07-20T13:43:13.336Z,33.80
2018-07-20T13:45:42.542Z,33.60
2018-07-20T13:48:11.496Z,33.20
2018-07-20T13:50:40.205Z,32.90
2018-07-20T13:53:09.146Z,32.80
2018-07-20T13:55:39.222Z,32.80
2018-07-20T13:58:07.913Z,32.90
2018-07-20T14:00:36.655Z,33.00
2018-07-20T14:05:33.577Z,33.30
2018-07-20T14:08:02.245Z,33.00
2018-07-20T14:10:30.920Z,33.00
2018-07-20T14:12:59.384Z,33.00
2018-07-20T14:15:28.009Z,33.20
2018-07-20T14:17:56.452Z,33.20
2018-07-20T14:20:25.707Z,33.20
2018-07-20T14:22:54.329Z,33.20
2018-07-20T14:25:22.848Z,33.10
2018-07-20T14:27:51.412Z,33.00
2018-07-20T14:30:19.843Z,32.90
2018-07-20T14:32:48.310Z,32.90
2018-07-20T14:37:44.855Z,33.00
2018-07-20T14:40:13.409Z,32.90
2018-07-20T14:42:41.876Z,32.90
2018-07-20T14:45:10.820Z,32.90
2018-07-20T14:47:39.420Z,32.80
2018-07-20T14:50:08.326Z,32.60
2018-07-20T14:52:37.041Z,32.50
2018-07-20T14:55:05.524Z,32.60
2018-07-20T14:57:34.065Z,32.70
2018-07-20T15:00:02.829Z,32.60
2018-07-20T15:02:31.281Z,32.60
2018-07-20T15:04:59.788Z,32.60
2018-07-20T15:07:28.273Z,32.70
2018-07-20T15:09:57.029Z,32.70
2018-07-20T15:12:25.654Z,32.70
2018-07-20T15:14:54.139Z,32.70
2018-07-20T15:17:22.647Z,32.70
2018-07-20T15:19:51.091Z,32.70
2018-07-20T15:22:19.579Z,32.70
2018-07-20T15:24:48.132Z,32.70
2018-07-20T15:27:16.667Z,32.70
2018-07-20T15:29:45.307Z,32.50
2018-07-20T15:32:14.073Z,32.30
2018-07-20T15:34:42.775Z,32.20
2018-07-20T15:37:11.600Z,32.20
2018-07-20T15:39:40.055Z,32.30
2018-07-20T15:42:08.542Z,32.20
2018-07-20T15:44:37.362Z,32.30
2018-07-20T15:47:06.225Z,32.40
2018-07-20T15:49:34.796Z,32.40
2018-07-20T15:54:31.817Z,32.40
2018-07-20T15:57:00.248Z,32.50
2018-07-20T15:59:28.968Z,32.50
2018-07-20T16:01:57.593Z,32.50
2018-07-20T16:04:26.259Z,32.40
2018-07-20T16:06:54.727Z,32.20
2018-07-20T16:09:23.224Z,32.00
2018-07-20T16:11:51.899Z,31.90
2018-07-20T16:14:20.777Z,31.70
2018-07-20T16:19:17.446Z,31.40
2018-07-20T16:21:45.868Z,31.20
2018-07-20T16:24:14.633Z,31.10
2018-07-20T16:26:43.134Z,31.10
2018-07-20T16:29:11.594Z,31.00
2018-07-20T16:31:40.056Z,30.90
2018-07-20T16:34:08.476Z,31.10
2018-07-20T16:36:37.041Z,31.10
2018-07-20T16:39:08.071Z,31.10
2018-07-20T16:41:37.119Z,31.10
2018-07-20T16:44:05.828Z,31.10
2018-07-20T16:46:34.407Z,31.20
2018-07-20T16:49:02.893Z,31.30
2018-07-20T16:51:31.333Z,31.40
2018-07-20T16:53:59.824Z,31.50
2018-07-20T16:56:28.287Z,31.60
2018-07-20T16:58:57.090Z,31.70
2018-07-20T17:01:25.556Z,31.80
2018-07-20T17:03:54.519Z,31.80
2018-07-20T17:06:23.133Z,31.90
2018-07-20T17:08:51.587Z,31.90
2018-07-20T17:11:20.104Z,31.80
2018-07-20T17:13:48.605Z,31.70
2018-07-20T17:16:17.059Z,31.50
2018-07-20T17:18:45.554Z,31.20
2018-07-20T17:21:15.610Z,31.10
2018-07-20T17:23:45.304Z,31.00
2018-07-20T17:26:13.786Z,30.70
2018-07-20T17:28:42.285Z,30.70
2018-07-20T17:31:10.751Z,30.50
2018-07-20T17:33:39.268Z,30.30
2018-07-20T17:36:07.780Z,30.10
2018-07-20T17:38:36.218Z,30.00
2018-07-20T17:41:04.687Z,29.80
2018-07-20T17:43:33.166Z,29.70
2018-07-20T17:46:01.664Z,29.70
2018-07-20T17:48:30.109Z,29.70
2018-07-20T17:50:58.522Z,29.70
2018-07-20T17:53:27.020Z,29.60
2018-07-20T17:55:55.517Z,29.60
2018-07-20T18:00:52.196Z,29.50
2018-07-20T18:03:20.687Z,29.30
2018-07-20T18:05:49.153Z,29.20
2018-07-20T18:08:17.756Z,29.20
2018-07-20T18:10:46.218Z,29.10
2018-07-20T18:13:14.689Z,29.10
2018-07-20T18:15:43.177Z,29.00
2018-07-20T18:18:11.709Z,29.00
2018-07-20T18:20:40.170Z,28.90
2018-07-20T18:23:08.918Z,28.80
2018-07-20T18:25:37.449Z,28.80
2018-07-20T18:28:05.882Z,28.70
2018-07-20T18:30:34.356Z,28.60
2018-07-20T18:33:02.850Z,28.40
2018-07-20T18:35:31.248Z,28.40
2018-07-20T18:37:59.776Z,28.20
2018-07-20T18:40:28.233Z,28.10
2018-07-20T18:42:56.657Z,28.10
2018-07-20T18:45:25.141Z,28.10
2018-07-20T18:47:53.585Z,27.90
2018-07-20T18:50:22.095Z,27.90
2018-07-20T18:52:50.782Z,27.80
2018-07-20T18:55:19.347Z,27.80
2018-07-20T18:57:47.836Z,27.70
2018-07-20T19:00:16.402Z,27.50
2018-07-20T19:05:13.060Z,27.40
2018-07-20T19:07:41.515Z,27.30
2018-07-20T19:10:10.061Z,27.20
2018-07-20T19:12:38.638Z,27.20
2018-07-20T19:15:07.900Z,27.10
2018-07-20T19:17:36.565Z,27.00
2018-07-20T19:20:05.510Z,27.00
2018-07-20T19:22:34.084Z,27.00
2018-07-20T19:25:02.692Z,26.90
2018-07-20T19:27:31.485Z,26.90
2018-07-20T19:30:00.083Z,26.70
2018-07-20T19:32:28.692Z,26.60
2018-07-20T19:34:57.241Z,26.40
2018-07-20T19:37:25.842Z,26.30
2018-07-20T19:42:22.482Z,26.20
2018-07-20T19:44:51.000Z,26.10
2018-07-20T19:47:19.654Z,26.00
2018-07-20T19:49:48.705Z,26.00
2018-07-20T19:52:17.333Z,25.90
2018-07-20T19:54:45.982Z,25.90
2018-07-20T19:57:14.864Z,25.80
2018-07-20T19:59:43.561Z,25.70
2018-07-20T20:02:12.287Z,25.70
2018-07-20T20:04:40.765Z,25.60
2018-07-20T20:07:09.278Z,25.60
2018-07-20T20:09:37.769Z,25.50
2018-07-20T20:12:06.410Z,25.50
2018-07-20T20:14:34.884Z,25.50
2018-07-20T20:17:03.338Z,25.40
2018-07-20T20:19:31.883Z,25.40
2018-07-20T20:22:00.497Z,25.40
2018-07-20T20:24:28.958Z,25.30
2018-07-20T20:26:57.376Z,25.30
2018-07-20T20:29:25.974Z,25.20
2018-07-20T20:31:54.365Z,25.10
2018-07-20T20:34:22.838Z,25.10
2018-07-20T20:36:51.296Z,25.00
2018-07-20T20:39:19.871Z,25.00
2018-07-20T20:41:48.387Z,24.90
2018-07-20T20:44:16.996Z,24.90
2018-07-20T20:46:45.537Z,24.90
2018-07-20T20:49:14.508Z,24.80
2018-07-20T20:51:42.995Z,24.80
2018-07-20T20:54:11.452Z,24.80
2018-07-20T20:56:39.979Z,24.70
2018-07-20T20:59:08.741Z,24.60
2018-07-20T21:01:37.274Z,24.60
2018-07-20T21:04:05.780Z,24.50
2018-07-20T21:09:02.634Z,24.60
2018-07-20T21:11:31.081Z,24.50
2018-07-20T21:13:59.617Z,24.50
2018-07-20T21:16:28.120Z,24.40
2018-07-20T21:18:56.686Z,24.50
2018-07-20T21:21:25.316Z,24.40
2018-07-20T21:23:53.840Z,24.40
2018-07-20T21:26:22.638Z,24.40
2018-07-20T21:28:51.517Z,24.40
2018-07-20T21:31:20.018Z,24.40
2018-07-20T21:33:48.714Z,24.30
2018-07-20T21:36:17.282Z,24.30
2018-07-20T21:38:45.831Z,24.30
2018-07-20T21:41:14.426Z,24.30
2018-07-20T21:43:42.985Z,24.30
2018-07-20T21:46:11.444Z,24.30
2018-07-20T21:48:39.940Z,24.30
2018-07-20T21:51:08.680Z,24.30
2018-07-20T21:53:37.272Z,24.30
2018-07-20T21:56:05.828Z,24.30
2018-07-20T21:58:34.355Z,24.10
2018-07-20T22:01:03.084Z,24.10
2018-07-20T22:03:31.532Z,24.10
2018-07-20T22:06:00.020Z,24.10
2018-07-20T22:08:28.867Z,24.10
2018-07-20T22:10:57.585Z,24.00
2018-07-20T22:13:26.216Z,23.90
2018-07-20T22:15:54.936Z,23.90
2018-07-20T22:18:23.402Z,23.80
2018-07-20T22:20:51.996Z,23.80
2018-07-20T22:23:20.668Z,23.70
2018-07-20T22:25:49.121Z,23.60
2018-07-20T22:28:17.592Z,23.60
2018-07-20T22:30:46.048Z,23.50
2018-07-20T22:33:14.700Z,23.50
2018-07-20T22:35:43.237Z,23.40
2018-07-20T22:38:11.732Z,23.40
2018-07-20T22:40:40.294Z,23.40
2018-07-20T22:43:08.736Z,23.40
2018-07-20T22:48:05.924Z,23.20
2018-07-20T22:50:34.481Z,23.10
2018-07-20T22:53:03.276Z,22.80
2018-07-20T22:55:31.789Z,22.70
2018-07-20T22:58:00.260Z,22.50
2018-07-20T23:00:28.864Z,22.30
2018-07-20T23:02:57.399Z,22.20
2018-07-20T23:05:25.901Z,22.10
2018-07-20T23:07:54.421Z,22.10
2018-07-20T23:10:22.956Z,22.10
2018-07-20T23:12:51.397Z,22.10
2018-07-20T23:15:20.000Z,22.10
2018-07-20T23:17:48.550Z,22.10
2018-07-20T23:20:17.145Z,22.20
2018-07-20T23:22:45.972Z,22.20
2018-07-20T23:25:14.402Z,22.20
2018-07-20T23:27:43.071Z,22.30
2018-07-20T23:30:11.684Z,22.30
2018-07-20T23:32:40.377Z,22.40
2018-07-20T23:35:09.209Z,22.40
2018-07-20T23:37:37.995Z,22.40
2018-07-20T23:40:06.834Z,22.40
2018-07-20T23:42:35.302Z,22.40
2018-07-20T23:45:04.076Z,22.40
2018-07-20T23:47:32.530Z,22.40
2018-07-20T23:50:01.114Z,22.40
2018-07-20T23:52:29.573Z,22.40
2018-07-20T23:54:58.087Z,22.30
2018-07-20T23:57:26.705Z,22.30
2018-07-20T23:59:55.223Z,22.30
